createdAt,value
2023-03-02T00:05:27.761Z,10.80
2023-03-02T00:11:31.775Z,13.40
2023-03-02T00:17:33.724Z,11.60
2023-03-02T00:23:35.639Z,8.83
2023-03-02T00:29:37.541Z,7.33
2023-03-02T00:35:41.115Z,6.20
2023-03-02T00:41:43.065Z,6.57
2023-03-02T00:47:44.988Z,6.50
2023-03-02T00:53:46.964Z,5.83
2023-03-02T00:59:49.404Z,7.97
2023-03-02T01:05:55.355Z,7.93
2023-03-02T01:11:57.649Z,9.27
2023-03-02T01:18:01.089Z,10.27
2023-03-02T01:24:03.337Z,12.50
2023-03-02T01:30:06.630Z,9.80
2023-03-02T01:36:09.238Z,8.90
2023-03-02T01:42:11.116Z,8.33
2023-03-02T01:48:16.585Z,10.67
2023-03-02T01:54:23.422Z,8.77
2023-03-02T02:00:33.233Z,9.60
2023-03-02T02:06:57.248Z,9.33
2023-03-02T02:12:59.174Z,5.57
2023-03-02T02:19:02.381Z,8.30
2023-03-02T02:25:28.657Z,6.13
2023-03-02T02:31:57.635Z,6.77
2023-03-02T02:38:08.047Z,7.70
2023-03-02T02:44:15.911Z,7.57
2023-03-02T02:50:28.524Z,6.83
2023-03-02T02:56:34.954Z,7.57
2023-03-02T03:02:44.702Z,7.73
2023-03-02T03:08:46.453Z,10.80
2023-03-02T03:14:48.963Z,7.17
2023-03-02T03:20:50.902Z,8.97
2023-03-02T03:26:54.321Z,7.60
2023-03-02T03:32:56.209Z,10.40
2023-03-02T03:38:58.290Z,6.13
2023-03-02T03:45:01.105Z,7.87
2023-03-02T03:51:04.691Z,8.27
2023-03-02T03:57:06.691Z,6.87
2023-03-02T04:03:08.667Z,6.33
2023-03-02T04:09:12.337Z,8.67
2023-03-02T04:15:16.913Z,6.50
2023-03-02T04:21:19.059Z,6.47
2023-03-02T04:27:21.178Z,9.70
2023-03-02T04:33:23.163Z,11.93
2023-03-02T04:39:26.070Z,8.80
2023-03-02T04:45:28.101Z,7.80
2023-03-02T04:51:40.194Z,9.60
2023-03-02T04:57:42.076Z,9.03
2023-03-02T05:03:44.310Z,12.93
2023-03-02T05:09:46.281Z,13.50
2023-03-02T05:15:48.249Z,9.80
2023-03-02T05:21:50.312Z,10.00
2023-03-02T05:27:52.941Z,8.03
2023-03-02T05:33:54.958Z,11.20
2023-03-02T05:39:56.901Z,9.80
2023-03-02T05:46:00.596Z,8.53
2023-03-02T05:52:02.547Z,14.80
2023-03-02T05:58:09.103Z,10.20
2023-03-02T06:04:11.109Z,10.80
2023-03-02T06:10:14.272Z,10.90
2023-03-02T06:16:16.157Z,9.20
2023-03-02T06:22:18.401Z,10.57
2023-03-02T06:28:20.640Z,12.23
2023-03-02T06:34:22.554Z,11.00
2023-03-02T06:40:24.510Z,11.20
2023-03-02T06:46:26.489Z,8.83
2023-03-02T06:52:28.670Z,9.30
2023-03-02T06:58:30.572Z,9.60
2023-03-02T07:04:32.992Z,9.60
2023-03-02T07:10:34.897Z,11.43
2023-03-02T07:16:36.847Z,8.70
2023-03-02T07:22:39.632Z,8.80
2023-03-02T07:28:43.219Z,10.20
2023-03-02T07:34:45.292Z,9.90
2023-03-02T07:40:47.190Z,12.73
2023-03-02T07:46:49.192Z,8.70
2023-03-02T07:52:51.324Z,11.23
2023-03-02T07:58:53.221Z,12.07
2023-03-02T08:04:55.294Z,11.03
2023-03-02T08:11:09.104Z,11.33
2023-03-02T08:17:11.021Z,9.47
2023-03-02T08:23:12.925Z,14.13
2023-03-02T08:29:14.830Z,14.17
2023-03-02T08:35:17.426Z,12.87
2023-03-02T08:41:22.521Z,10.43
2023-03-02T08:47:24.590Z,11.77
2023-03-02T08:53:28.378Z,17.40
2023-03-02T08:59:30.320Z,8.57
2023-03-02T09:05:32.232Z,10.30
2023-03-02T09:11:34.545Z,16.73
2023-03-02T09:17:36.650Z,13.40
2023-03-02T09:23:38.560Z,12.23
2023-03-02T09:29:40.539Z,9.27
2023-03-02T09:35:42.473Z,11.87
2023-03-02T09:42:43.438Z,13.97
2023-03-02T09:49:19.711Z,13.43
2023-03-02T09:55:30.306Z,16.40
2023-03-02T10:01:42.497Z,10.80
2023-03-02T10:07:46.007Z,13.23
2023-03-02T10:14:17.711Z,10.80
2023-03-02T10:20:45.319Z,8.37
2023-03-02T10:26:54.362Z,7.67
2023-03-02T10:33:02.979Z,9.23
2023-03-02T10:39:13.067Z,17.10
2023-03-02T10:45:32.530Z,8.60
2023-03-02T10:51:37.879Z,8.40
2023-03-02T10:57:43.472Z,20.20
2023-03-02T11:03:57.490Z,14.03
2023-03-02T11:10:07.052Z,9.67
2023-03-02T11:16:18.125Z,8.73
2023-03-02T11:23:15.567Z,11.30
2023-03-02T11:29:47.475Z,10.80
2023-03-02T11:36:04.277Z,12.33
2023-03-02T11:42:15.551Z,11.43
2023-03-02T11:48:24.153Z,12.57
2023-03-02T11:54:30.980Z,14.80
2023-03-02T12:00:42.161Z,9.70
2023-03-02T12:06:45.263Z,13.27
2023-03-02T12:13:23.283Z,10.73
2023-03-02T12:19:40.246Z,11.53
2023-03-02T12:25:51.159Z,12.53
2023-03-02T12:31:56.941Z,13.20
2023-03-02T12:38:31.110Z,14.13
2023-03-02T12:44:51.892Z,13.40
2023-03-02T12:51:01.321Z,16.33
2023-03-02T12:57:18.811Z,17.27
2023-03-02T13:03:21.184Z,14.60
2023-03-02T13:09:23.843Z,21.17
2023-03-02T13:15:26.298Z,17.37
2023-03-02T13:21:38.246Z,16.50
2023-03-02T13:27:40.149Z,15.23
2023-03-02T13:33:46.577Z,24.60
2023-03-02T13:39:57.982Z,16.90
2023-03-02T13:46:06.324Z,16.10
2023-03-02T13:52:29.797Z,13.47
2023-03-02T13:58:38.462Z,13.50
2023-03-02T14:04:40.664Z,16.15
2023-03-02T14:10:42.637Z,14.70
2023-03-02T14:16:44.560Z,16.60
2023-03-02T14:22:47.904Z,13.83
2023-03-02T14:28:59.893Z,13.33
2023-03-02T14:35:11.522Z,16.53
2023-03-02T14:41:21.733Z,19.40
2023-03-02T14:47:24.266Z,18.33
2023-03-02T14:53:29.775Z,21.40
2023-03-02T14:59:31.716Z,22.90
2023-03-02T15:05:33.841Z,16.70
2023-03-02T15:11:36.080Z,33.97
2023-03-02T15:17:38.209Z,20.43
2023-03-02T15:23:40.094Z,20.90
2023-03-02T15:29:47.040Z,18.83
2023-03-02T15:35:55.727Z,21.90
2023-03-02T15:41:57.652Z,19.53
2023-03-02T15:47:59.577Z,22.03
2023-03-02T15:54:01.462Z,23.80
2023-03-02T16:00:05.314Z,28.80
2023-03-02T16:06:08.725Z,24.20
2023-03-02T16:12:10.666Z,28.37
2023-03-02T16:18:14.309Z,28.67
2023-03-02T16:24:17.061Z,30.70
2023-03-02T16:30:21.383Z,31.73
2023-03-02T16:36:26.014Z,32.73
2023-03-02T16:42:30.324Z,41.43
2023-03-02T16:48:32.215Z,43.20
2023-03-02T16:54:34.217Z,48.43
2023-03-02T17:00:36.172Z,51.13
2023-03-02T17:06:40.146Z,60.13
2023-03-02T17:12:43.514Z,60.30
2023-03-02T17:18:48.020Z,69.53
2023-03-02T17:24:49.994Z,65.97
2023-03-02T17:30:51.993Z,67.70
2023-03-02T17:36:54.135Z,70.73
2023-03-02T17:42:57.731Z,69.57
2023-03-02T17:49:01.222Z,77.97
2023-03-02T17:55:04.294Z,73.33
2023-03-02T18:01:07.784Z,74.97
2023-03-02T18:07:09.657Z,73.20
2023-03-02T18:13:11.554Z,90.10
2023-03-02T18:19:13.734Z,114.60
2023-03-02T18:25:15.921Z,126.10
2023-03-02T18:31:18.886Z,71.60
2023-03-02T18:37:20.986Z,82.83
2023-03-02T18:43:22.866Z,69.57
2023-03-02T18:49:25.004Z,78.43
2023-03-02T18:55:27.351Z,79.87
2023-03-02T19:01:31.485Z,75.17
2023-03-02T19:07:33.437Z,80.10
2023-03-02T19:13:35.608Z,63.10
2023-03-02T19:19:37.588Z,86.77
2023-03-02T19:25:39.654Z,69.07
2023-03-02T19:31:41.691Z,67.40
2023-03-02T19:37:44.873Z,65.50
2023-03-02T19:43:47.179Z,65.10
2023-03-02T19:49:49.141Z,59.67
2023-03-02T19:55:52.564Z,67.37
2023-03-02T20:01:55.372Z,64.57
2023-03-02T20:07:57.332Z,61.33
2023-03-02T20:14:03.015Z,60.10
2023-03-02T20:20:05.624Z,60.50
2023-03-02T20:26:08.649Z,56.13
2023-03-02T20:32:12.544Z,50.63
2023-03-02T20:38:31.663Z,54.27
2023-03-02T20:44:34.464Z,48.50
2023-03-02T20:50:36.976Z,56.20
2023-03-02T20:56:38.922Z,56.70
2023-03-02T21:02:41.038Z,55.93
2023-03-02T21:08:44.367Z,65.30
2023-03-02T21:14:46.315Z,51.10
2023-03-02T21:20:48.399Z,45.57
2023-03-02T21:26:53.305Z,44.67
2023-03-02T21:32:56.773Z,48.13
2023-03-02T21:38:58.749Z,63.77
2023-03-02T21:45:00.714Z,45.67
2023-03-02T21:51:02.667Z,48.70
2023-03-02T21:57:04.576Z,50.63
2023-03-02T22:03:07.533Z,51.93
2023-03-02T22:09:11.425Z,50.97
2023-03-02T22:15:14.802Z,45.47
2023-03-02T22:21:34.740Z,50.20
2023-03-02T22:27:36.705Z,44.03
2023-03-02T22:33:41.114Z,47.37
2023-03-02T22:39:43.687Z,62.93
2023-03-02T22:45:45.617Z,48.27
2023-03-02T22:51:47.524Z,47.27
2023-03-02T22:57:49.442Z,43.10
2023-03-02T23:03:57.145Z,43.33
2023-03-02T23:09:59.516Z,35.87
2023-03-02T23:16:02.523Z,34.50
2023-03-02T23:22:04.677Z,36.20
2023-03-02T23:28:06.667Z,27.87
2023-03-02T23:34:08.587Z,24.30
2023-03-02T23:40:11.560Z,33.77
2023-03-02T23:46:14.261Z,30.60
2023-03-02T23:52:16.316Z,27.80
2023-03-02T23:58:18.341Z,34.73
